createdAt,value
2018-06-04T00:00:03.426Z,3.93
2018-06-04T00:02:32.151Z,4.70
2018-06-04T00:05:00.875Z,4.40
2018-06-04T00:07:29.395Z,4.47
2018-06-04T00:09:58.560Z,4.17
2018-06-04T00:12:27.062Z,4.47
2018-06-04T00:14:55.783Z,4.33
2018-06-04T00:17:24.467Z,4.67
2018-06-04T00:19:53.152Z,4.53
2018-06-04T00:22:21.822Z,4.10
2018-06-04T00:24:50.512Z,4.60
2018-06-04T00:27:19.311Z,4.70
2018-06-04T00:29:47.978Z,4.70
2018-06-04T00:32:16.735Z,4.23
2018-06-04T00:34:45.439Z,4.70
2018-06-04T00:37:14.138Z,4.93
2018-06-04T00:39:42.901Z,4.20
2018-06-04T00:42:11.573Z,4.30
2018-06-04T00:44:40.256Z,4.47
2018-06-04T00:47:08.931Z,4.60
2018-06-04T00:49:37.425Z,4.70
2018-06-04T00:52:06.206Z,4.20
2018-06-04T00:54:34.899Z,4.30
2018-06-04T00:57:03.704Z,3.93
2018-06-04T00:59:32.386Z,4.20
2018-06-04T01:02:01.089Z,4.13
2018-06-04T01:04:29.778Z,4.17
2018-06-04T01:06:58.466Z,4.53
2018-06-04T01:09:27.179Z,4.07
2018-06-04T01:11:55.879Z,4.57
2018-06-04T01:14:24.584Z,4.10
2018-06-04T01:16:53.089Z,4.20
2018-06-04T01:19:21.776Z,4.20
2018-06-04T01:21:50.454Z,4.23
2018-06-04T01:24:19.111Z,4.13
2018-06-04T01:26:47.621Z,4.80
2018-06-04T01:29:16.281Z,4.70
2018-06-04T01:31:44.761Z,4.50
2018-06-04T01:34:13.266Z,4.70
2018-06-04T01:36:41.987Z,4.10
2018-06-04T01:39:10.697Z,4.50
2018-06-04T01:41:39.379Z,4.47
2018-06-04T01:44:08.080Z,4.63
2018-06-04T01:46:36.795Z,4.90
2018-06-04T01:49:05.534Z,4.33
2018-06-04T01:51:34.232Z,4.63
2018-06-04T01:54:02.927Z,4.30
2018-06-04T01:56:31.429Z,4.13
2018-06-04T01:59:00.114Z,4.57
2018-06-04T02:01:28.796Z,4.57
2018-06-04T02:03:57.492Z,4.77
2018-06-04T02:06:26.171Z,4.87
2018-06-04T02:08:54.838Z,5.17
2018-06-04T02:11:23.532Z,5.10
2018-06-04T02:13:52.240Z,4.63
2018-06-04T02:16:20.954Z,4.73
2018-06-04T02:18:49.651Z,4.53
2018-06-04T02:21:18.330Z,5.50
2018-06-04T02:23:46.995Z,5.03
2018-06-04T02:26:15.765Z,4.93
2018-06-04T02:28:44.451Z,4.83
2018-06-04T02:31:13.115Z,4.50
2018-06-04T02:33:41.837Z,4.40
2018-06-04T02:36:10.495Z,4.90
2018-06-04T02:38:39.170Z,4.80
2018-06-04T02:41:07.668Z,4.80
2018-06-04T02:43:36.350Z,4.70
2018-06-04T02:46:05.163Z,4.40
2018-06-04T02:48:33.896Z,4.43
2018-06-04T02:51:02.632Z,4.60
2018-06-04T02:53:31.342Z,4.53
2018-06-04T02:56:00.075Z,4.43
2018-06-04T02:58:28.757Z,4.83
2018-06-04T03:00:57.482Z,4.50
2018-06-04T03:03:26.195Z,4.93
2018-06-04T03:05:54.870Z,4.77
2018-06-04T03:08:23.532Z,4.60
2018-06-04T03:10:52.505Z,4.90
2018-06-04T03:13:21.202Z,4.60
2018-06-04T03:15:49.869Z,4.83
2018-06-04T03:18:18.620Z,4.83
2018-06-04T03:20:47.384Z,4.23
2018-06-04T03:23:16.122Z,5.00
2018-06-04T03:25:44.845Z,4.40
2018-06-04T03:28:13.559Z,4.93
2018-06-04T03:30:42.275Z,4.30
2018-06-04T03:33:11.006Z,4.37
2018-06-04T03:35:39.692Z,4.67
2018-06-04T03:38:08.401Z,4.53
2018-06-04T03:40:37.072Z,4.30
2018-06-04T03:43:05.779Z,4.33
2018-06-04T03:45:34.444Z,4.77
2018-06-04T03:48:03.130Z,4.30
2018-06-04T03:50:31.805Z,5.23
2018-06-04T03:53:00.531Z,4.60
2018-06-04T03:55:29.206Z,5.00
2018-06-04T03:57:57.894Z,4.67
2018-06-04T04:00:26.566Z,4.03
2018-06-04T04:02:55.316Z,4.53
2018-06-04T04:05:24.004Z,4.77
2018-06-04T04:07:52.678Z,3.97
2018-06-04T04:10:21.371Z,4.03
2018-06-04T04:12:50.065Z,4.17
2018-06-04T04:15:18.731Z,4.27
2018-06-04T04:17:47.406Z,4.40
2018-06-04T04:20:16.093Z,4.30
2018-06-04T04:22:45.651Z,4.30
2018-06-04T04:25:15.131Z,4.77
2018-06-04T04:27:43.808Z,4.50
2018-06-04T04:30:12.491Z,4.50
2018-06-04T04:32:41.198Z,4.80
2018-06-04T04:35:09.859Z,4.97
2018-06-04T04:37:38.554Z,4.97
2018-06-04T04:40:07.263Z,4.80
2018-06-04T04:42:35.952Z,5.13
2018-06-04T04:45:04.741Z,4.77
2018-06-04T04:47:33.458Z,4.60
2018-06-04T04:50:01.992Z,4.83
2018-06-04T04:52:30.673Z,4.83
2018-06-04T04:54:59.359Z,5.27
2018-06-04T04:57:28.062Z,4.90
2018-06-04T04:59:56.754Z,4.63
2018-06-04T05:02:25.426Z,4.30
2018-06-04T05:04:54.099Z,4.10
2018-06-04T05:07:22.872Z,4.80
2018-06-04T05:09:51.606Z,4.90
2018-06-04T05:12:20.279Z,4.13
2018-06-04T05:14:48.987Z,3.57
2018-06-04T05:17:17.471Z,3.90
2018-06-04T05:19:46.246Z,4.17
2018-06-04T05:22:14.914Z,4.20
2018-06-04T05:24:43.676Z,4.43
2018-06-04T05:27:12.414Z,4.77
2018-06-04T05:29:40.949Z,4.60
2018-06-04T05:32:11.138Z,4.40
2018-06-04T05:34:39.849Z,4.20
2018-06-04T05:37:08.664Z,4.43
2018-06-04T05:39:37.387Z,4.37
2018-06-04T05:42:06.146Z,4.43
2018-06-04T05:44:34.830Z,4.60
2018-06-04T05:47:03.577Z,4.50
2018-06-04T05:49:32.253Z,4.33
2018-06-04T05:52:00.999Z,4.20
2018-06-04T05:54:29.799Z,4.10
2018-06-04T05:56:58.499Z,4.20
2018-06-04T05:59:27.192Z,3.93
2018-06-04T06:01:55.909Z,4.10
2018-06-04T06:04:24.669Z,4.23
2018-06-04T06:06:53.387Z,4.33
2018-06-04T06:09:22.080Z,4.03
2018-06-04T06:11:50.823Z,4.10
2018-06-04T06:14:19.571Z,4.03
2018-06-04T06:16:48.289Z,4.10
2018-06-04T06:19:16.974Z,3.93
2018-06-04T06:21:45.689Z,3.90
2018-06-04T06:24:14.421Z,5.00
2018-06-04T06:26:42.967Z,4.60
2018-06-04T06:29:12.616Z,5.13
2018-06-04T06:31:41.348Z,4.40
2018-06-04T06:34:10.083Z,4.40
2018-06-04T06:36:38.826Z,5.00
2018-06-04T06:39:09.099Z,6.77
2018-06-04T06:41:37.803Z,5.03
2018-06-04T06:44:06.354Z,4.30
2018-06-04T06:46:35.054Z,4.07
2018-06-04T06:49:03.626Z,4.40
2018-06-04T06:51:32.306Z,3.80
2018-06-04T06:54:01.125Z,4.57
2018-06-04T06:56:29.839Z,4.10
2018-06-04T06:58:58.674Z,4.00
2018-06-04T07:01:27.396Z,3.97
2018-06-04T07:03:56.294Z,3.73
2018-06-04T07:06:24.984Z,3.60
2018-06-04T07:08:53.788Z,3.57
2018-06-04T07:11:23.173Z,3.43
2018-06-04T07:13:51.924Z,3.70
2018-06-04T07:16:20.491Z,3.20
2018-06-04T07:18:49.211Z,3.53
2018-06-04T07:21:17.947Z,3.77
2018-06-04T07:23:46.679Z,3.00
2018-06-04T07:26:31.002Z,3.27
2018-06-04T07:29:00.029Z,3.53
2018-06-04T07:31:28.761Z,3.13
2018-06-04T07:33:57.525Z,3.23
2018-06-04T07:36:26.281Z,3.50
2018-06-04T07:38:55.017Z,3.10
2018-06-04T07:41:23.797Z,3.57
2018-06-04T07:43:52.576Z,3.40
2018-06-04T07:46:21.372Z,3.30
2018-06-04T07:48:50.137Z,3.43
2018-06-04T07:51:18.861Z,3.77
2018-06-04T07:53:47.559Z,3.30
2018-06-04T07:56:16.392Z,3.37
2018-06-04T07:58:45.166Z,3.40
2018-06-04T08:01:13.691Z,3.53
2018-06-04T08:03:42.486Z,3.50
2018-06-04T08:06:11.215Z,3.67
2018-06-04T08:08:40.329Z,3.77
2018-06-04T08:11:09.131Z,3.43
2018-06-04T08:13:37.819Z,3.87
2018-06-04T08:16:06.579Z,3.83
2018-06-04T08:18:35.312Z,3.53
2018-06-04T08:21:04.054Z,3.43
2018-06-04T08:23:32.801Z,4.00
2018-06-04T08:26:01.587Z,3.63
2018-06-04T08:28:30.317Z,4.17
2018-06-04T08:30:59.064Z,3.80
2018-06-04T08:33:27.806Z,3.60
2018-06-04T08:35:56.521Z,3.72
2018-06-04T08:38:25.324Z,3.52
2018-06-04T08:40:54.057Z,3.90
2018-06-04T08:43:22.802Z,3.55
2018-06-04T08:45:51.545Z,3.70
2018-06-04T08:48:20.319Z,4.10
2018-06-04T08:50:49.017Z,4.12
2018-06-04T08:53:17.740Z,3.70
2018-06-04T08:55:46.462Z,4.12
2018-06-04T08:58:15.197Z,3.87
2018-06-04T09:00:43.931Z,3.87
2018-06-04T09:03:12.675Z,3.67
2018-06-04T09:05:41.471Z,4.05
2018-06-04T09:08:10.236Z,4.20
2018-06-04T09:10:38.991Z,3.90
2018-06-04T09:13:07.756Z,3.95
2018-06-04T09:15:36.350Z,4.35
2018-06-04T09:18:04.996Z,4.22
2018-06-04T09:20:33.757Z,3.72
2018-06-04T09:23:02.499Z,3.83
2018-06-04T09:25:30.979Z,4.20
2018-06-04T09:27:59.701Z,3.90
2018-06-04T09:30:28.495Z,4.12
2018-06-04T09:32:57.239Z,4.05
2018-06-04T09:35:26.289Z,4.12
2018-06-04T09:37:55.012Z,4.53
2018-06-04T09:40:23.734Z,4.30
2018-06-04T09:42:52.461Z,4.20
2018-06-04T09:45:21.161Z,4.55
2018-06-04T09:47:49.907Z,4.15
2018-06-04T09:50:18.619Z,4.12
2018-06-04T09:52:47.339Z,4.80
2018-06-04T09:55:16.042Z,4.20
2018-06-04T09:57:44.827Z,4.28
2018-06-04T10:00:18.079Z,4.70
2018-06-04T10:02:46.999Z,4.75
2018-06-04T10:05:18.315Z,4.33
2018-06-04T10:07:47.219Z,4.28
2018-06-04T10:10:15.979Z,4.08
2018-06-04T10:12:44.734Z,4.40
2018-06-04T10:15:13.514Z,4.37
2018-06-04T10:17:42.239Z,4.47
2018-06-04T10:20:11.441Z,4.70
2018-06-04T10:22:40.351Z,4.40
2018-06-04T10:25:09.062Z,4.60
2018-06-04T10:27:37.787Z,4.33
2018-06-04T10:30:06.507Z,4.37
2018-06-04T10:32:35.259Z,4.70
2018-06-04T10:35:07.859Z,4.45
2018-06-04T10:37:36.669Z,4.70
2018-06-04T10:40:05.417Z,4.95
2018-06-04T10:42:34.124Z,5.05
2018-06-04T10:45:03.387Z,4.55
2018-06-04T10:47:35.191Z,5.20
2018-06-04T10:50:04.000Z,5.20
2018-06-04T10:52:32.719Z,5.12
2018-06-04T10:55:01.438Z,4.65
2018-06-04T10:57:30.234Z,4.47
2018-06-04T10:59:59.004Z,4.92
2018-06-04T11:02:27.734Z,4.50
2018-06-04T11:04:56.292Z,4.95
2018-06-04T11:07:25.046Z,4.85
2018-06-04T11:09:54.302Z,4.92
2018-06-04T11:12:23.096Z,5.00
2018-06-04T11:14:51.594Z,5.03
2018-06-04T11:17:20.333Z,4.92
2018-06-04T11:19:49.094Z,5.15
2018-06-04T11:22:17.869Z,5.05
2018-06-04T11:24:46.649Z,5.42
2018-06-04T11:27:15.327Z,5.42
2018-06-04T11:29:44.031Z,5.08
2018-06-04T11:32:14.679Z,5.10
2018-06-04T11:34:43.899Z,5.12
2018-06-04T11:37:12.667Z,4.97
2018-06-04T11:39:41.352Z,5.50
2018-06-04T11:42:10.041Z,5.60
2018-06-04T11:44:38.757Z,5.53
2018-06-04T11:47:07.475Z,5.22
2018-06-04T11:49:36.212Z,6.12
2018-06-04T11:52:04.959Z,5.53
2018-06-04T11:54:33.668Z,5.70
2018-06-04T11:57:02.442Z,5.15
2018-06-04T11:59:31.155Z,5.70
2018-06-04T12:01:59.866Z,5.90
2018-06-04T12:04:28.571Z,5.83
2018-06-04T12:06:57.337Z,5.50
2018-06-04T12:09:26.221Z,6.00
2018-06-04T12:11:54.945Z,6.12
2018-06-04T12:14:23.654Z,5.40
2018-06-04T12:16:52.391Z,5.72
2018-06-04T12:19:20.943Z,5.70
2018-06-04T12:21:49.679Z,6.22
2018-06-04T12:24:18.353Z,5.40
2018-06-04T12:26:47.078Z,5.50
2018-06-04T12:29:15.952Z,5.67
2018-06-04T12:31:45.311Z,5.60
2018-06-04T12:34:14.073Z,5.35
2018-06-04T12:36:42.774Z,5.28
2018-06-04T12:39:12.066Z,5.47
2018-06-04T12:41:40.853Z,5.28
2018-06-04T12:44:09.558Z,5.50
2018-06-04T12:46:38.291Z,5.65
2018-06-04T12:49:07.038Z,4.58
2018-06-04T12:51:35.576Z,4.78
2018-06-04T12:54:04.321Z,4.40
2018-06-04T12:56:33.389Z,5.00
2018-06-04T12:59:02.131Z,4.70
2018-06-04T13:01:30.914Z,4.70
2018-06-04T13:03:59.661Z,4.50
2018-06-04T13:06:28.373Z,4.45
2018-06-04T13:08:57.088Z,4.10
2018-06-04T13:11:25.766Z,4.45
2018-06-04T13:13:54.589Z,4.78
2018-06-04T13:16:23.335Z,4.33
2018-06-04T13:18:52.083Z,4.47
2018-06-04T13:21:28.275Z,4.70
2018-06-04T13:23:57.014Z,5.03
2018-06-04T13:26:25.843Z,5.10
2018-06-04T13:28:54.728Z,4.92
2018-06-04T13:31:23.526Z,4.78
2018-06-04T13:33:52.287Z,5.20
2018-06-04T13:36:20.818Z,5.17
2018-06-04T13:38:49.623Z,4.70
2018-06-04T13:41:18.906Z,6.05
2018-06-04T13:43:47.687Z,4.78
2018-06-04T13:46:16.999Z,4.65
2018-06-04T13:48:45.819Z,5.45
2018-06-04T13:51:14.695Z,5.08
2018-06-04T13:53:43.514Z,5.17
2018-06-04T13:56:12.409Z,5.62
2018-06-04T13:58:41.133Z,4.67
2018-06-04T14:01:09.949Z,4.50
2018-06-04T14:03:38.748Z,4.87
2018-06-04T14:06:07.533Z,4.65
2018-06-04T14:08:36.367Z,5.65
2018-06-04T14:11:05.156Z,5.55
2018-06-04T14:13:33.913Z,4.95
2018-06-04T14:16:02.603Z,5.10
2018-06-04T14:18:31.375Z,5.10
2018-06-04T14:21:00.161Z,5.25
2018-06-04T14:23:28.705Z,5.55
2018-06-04T14:25:57.469Z,7.25
2018-06-04T14:28:26.241Z,6.03
2018-06-04T14:30:55.164Z,5.95
2018-06-04T14:33:23.891Z,5.62
2018-06-04T14:35:52.641Z,5.15
2018-06-04T14:38:21.364Z,5.97
2018-06-04T14:40:50.172Z,6.20
2018-06-04T14:43:18.733Z,13.55
2018-06-04T14:45:47.496Z,6.03
2018-06-04T14:48:16.844Z,5.80
2018-06-04T14:50:45.913Z,6.00
2018-06-04T14:53:14.733Z,6.03
2018-06-04T14:55:43.595Z,6.72
2018-06-04T14:58:12.688Z,6.35
2018-06-04T15:00:41.458Z,5.65
2018-06-04T15:03:10.583Z,12.07
2018-06-04T15:05:39.403Z,15.53
2018-06-04T15:08:08.253Z,20.32
2018-06-04T15:10:37.024Z,24.92
2018-06-04T15:13:06.621Z,6.17
2018-06-04T15:15:35.423Z,6.40
2018-06-04T15:18:04.303Z,5.72
2018-06-04T15:20:33.079Z,6.33
2018-06-04T15:23:01.826Z,6.37
2018-06-04T15:25:30.593Z,6.40
2018-06-04T15:27:59.386Z,5.97
2018-06-04T15:30:28.146Z,6.97
2018-06-04T15:32:56.974Z,6.20
2018-06-04T15:35:25.767Z,6.25
2018-06-04T15:37:54.837Z,6.73
2018-06-04T15:40:23.639Z,6.00
2018-06-04T15:42:52.489Z,6.50
2018-06-04T15:45:22.223Z,5.97
2018-06-04T15:47:50.987Z,6.60
2018-06-04T15:50:19.765Z,5.95
2018-06-04T15:52:48.498Z,21.77
2018-06-04T15:55:17.016Z,10.43
2018-06-04T15:57:45.748Z,32.80
2018-06-04T16:00:14.538Z,6.20
2018-06-04T16:02:43.388Z,6.63
2018-06-04T16:05:13.085Z,7.10
2018-06-04T16:07:41.950Z,7.10
2018-06-04T16:10:10.908Z,7.13
2018-06-04T16:12:40.294Z,7.13
2018-06-04T16:15:09.221Z,6.70
2018-06-04T16:17:37.950Z,6.20
2018-06-04T16:20:06.759Z,6.87
2018-06-04T16:22:35.521Z,6.97
2018-06-04T16:25:04.311Z,6.23
2018-06-04T16:27:33.099Z,6.53
2018-06-04T16:30:01.914Z,7.30
2018-06-04T16:32:30.800Z,6.30
2018-06-04T16:34:59.575Z,6.50
2018-06-04T16:37:28.364Z,6.60
2018-06-04T16:39:57.278Z,6.40
2018-06-04T16:42:26.341Z,6.40
2018-06-04T16:44:55.142Z,29.27
2018-06-04T16:47:23.833Z,40.50
2018-06-04T16:49:52.571Z,16.37
2018-06-04T16:52:22.083Z,7.63
2018-06-04T16:54:50.793Z,22.10
2018-06-04T16:57:19.531Z,38.30
2018-06-04T16:59:48.299Z,23.90
2018-06-04T17:02:17.033Z,9.40
2018-06-04T17:04:45.778Z,26.07
2018-06-04T17:07:14.545Z,14.70
2018-06-04T17:09:43.348Z,8.30
2018-06-04T17:12:12.099Z,7.20
2018-06-04T17:14:40.839Z,7.27
2018-06-04T17:17:09.581Z,7.50
2018-06-04T17:19:38.293Z,7.80
2018-06-04T17:22:07.087Z,6.97
2018-06-04T17:24:35.819Z,15.63
2018-06-04T17:27:04.580Z,9.70
2018-06-04T17:29:34.585Z,7.90
2018-06-04T17:32:03.317Z,8.37
2018-06-04T17:34:32.038Z,7.53
2018-06-04T17:37:00.784Z,8.10
2018-06-04T17:39:29.523Z,7.97
2018-06-04T17:41:58.283Z,12.17
2018-06-04T17:44:26.990Z,21.10
2018-06-04T17:46:55.776Z,12.37
2018-06-04T17:49:24.598Z,14.43
2018-06-04T17:51:53.365Z,36.03
2018-06-04T17:54:22.114Z,30.30
2018-06-04T17:56:50.930Z,20.77
2018-06-04T17:59:19.656Z,24.60
2018-06-04T18:01:48.381Z,24.87
2018-06-04T18:04:17.123Z,9.40
2018-06-04T18:06:45.636Z,13.27
2018-06-04T18:09:14.393Z,20.13
2018-06-04T18:11:42.936Z,12.30
2018-06-04T18:14:11.703Z,10.50
2018-06-04T18:16:40.498Z,9.67
2018-06-04T18:19:09.301Z,11.50
2018-06-04T18:21:38.078Z,10.53
2018-06-04T18:24:06.866Z,11.33
2018-06-04T18:26:35.669Z,10.07
2018-06-04T18:29:04.512Z,10.10
2018-06-04T18:31:33.285Z,11.73
2018-06-04T18:34:01.879Z,9.40
2018-06-04T18:36:30.614Z,10.00
2018-06-04T18:38:59.964Z,11.27
2018-06-04T18:41:28.773Z,10.03
2018-06-04T18:43:57.534Z,9.27
2018-06-04T18:46:26.291Z,10.07
2018-06-04T18:48:55.758Z,9.50
2018-06-04T18:51:24.466Z,8.80
2018-06-04T18:53:53.199Z,9.00
2018-06-04T18:56:21.973Z,9.47
2018-06-04T18:58:50.791Z,8.87
2018-06-04T19:01:19.556Z,9.27
2018-06-04T19:03:48.139Z,9.03
2018-06-04T19:06:16.950Z,8.90
2018-06-04T19:08:45.784Z,8.87
2018-06-04T19:11:14.559Z,9.43
2018-06-04T19:13:43.326Z,9.03
2018-06-04T19:16:12.125Z,9.83
2018-06-04T19:18:40.903Z,11.10
2018-06-04T19:21:09.726Z,10.00
2018-06-04T19:23:38.505Z,9.67
2018-06-04T19:26:07.341Z,10.63
2018-06-04T19:28:36.231Z,10.40
2018-06-04T19:31:05.001Z,9.33
2018-06-04T19:33:33.586Z,10.67
2018-06-04T19:36:02.359Z,10.83
2018-06-04T19:38:31.140Z,10.57
2018-06-04T19:41:00.067Z,14.57
2018-06-04T19:43:28.856Z,12.73
2018-06-04T19:45:57.616Z,11.63
2018-06-04T19:48:26.522Z,11.53
2018-06-04T19:50:55.491Z,11.23
2018-06-04T19:53:24.414Z,11.47
2018-06-04T19:55:53.381Z,11.87
2018-06-04T19:58:23.053Z,11.17
2018-06-04T20:00:51.882Z,12.43
2018-06-04T20:03:21.596Z,11.97
2018-06-04T20:05:50.964Z,12.07
2018-06-04T20:08:19.774Z,12.07
2018-06-04T20:10:48.584Z,12.63
2018-06-04T20:13:17.734Z,12.30
2018-06-04T20:15:46.649Z,13.10
2018-06-04T20:18:15.583Z,13.23
2018-06-04T20:20:45.796Z,12.67
2018-06-04T20:23:14.594Z,12.40
2018-06-04T20:25:43.419Z,11.33
2018-06-04T20:28:12.219Z,12.20
2018-06-04T20:30:41.064Z,12.53
2018-06-04T20:33:09.905Z,11.97
2018-06-04T20:35:38.483Z,11.77
2018-06-04T20:38:07.271Z,11.27
2018-06-04T20:40:36.129Z,11.33
2018-06-04T20:43:05.757Z,11.40
2018-06-04T20:45:34.490Z,11.40
2018-06-04T20:48:03.289Z,11.10
2018-06-04T20:50:32.058Z,12.10
2018-06-04T20:53:00.811Z,12.00
2018-06-04T20:55:29.523Z,16.07
2018-06-04T20:57:58.058Z,20.17
2018-06-04T21:00:27.387Z,16.77
2018-06-04T21:02:56.159Z,16.77
2018-06-04T21:05:24.938Z,15.70
2018-06-04T21:07:53.657Z,14.00
2018-06-04T21:10:22.439Z,13.23
2018-06-04T21:12:51.153Z,13.20
2018-06-04T21:15:20.433Z,11.13
2018-06-04T21:17:49.173Z,12.00
2018-06-04T21:20:17.972Z,12.23
2018-06-04T21:22:46.701Z,13.03
2018-06-04T21:25:15.806Z,13.43
2018-06-04T21:27:44.794Z,13.90
2018-06-04T21:30:13.526Z,13.60
2018-06-04T21:32:42.281Z,13.07
2018-06-04T21:35:11.013Z,13.43
2018-06-04T21:37:39.743Z,12.57
2018-06-04T21:40:08.473Z,12.17
2018-06-04T21:42:37.230Z,11.23
2018-06-04T21:45:05.997Z,12.00
2018-06-04T21:47:34.758Z,11.20
2018-06-04T21:50:03.534Z,11.70
2018-06-04T21:52:32.236Z,20.83
2018-06-04T21:55:00.796Z,42.23
2018-06-04T21:57:29.569Z,64.03
2018-06-04T21:59:58.256Z,53.43
2018-06-04T22:02:26.950Z,17.80
2018-06-04T22:04:55.633Z,12.10
2018-06-04T22:07:24.319Z,14.97
2018-06-04T22:09:53.021Z,12.23
2018-06-04T22:12:21.745Z,10.27
2018-06-04T22:14:50.453Z,8.30
2018-06-04T22:17:19.158Z,8.47
2018-06-04T22:19:47.865Z,8.40
2018-06-04T22:22:16.572Z,7.93
2018-06-04T22:24:45.088Z,8.50
2018-06-04T22:27:13.805Z,8.10
2018-06-04T22:29:42.538Z,7.57
2018-06-04T22:32:11.226Z,7.90
2018-06-04T22:34:39.711Z,8.00
2018-06-04T22:37:08.440Z,7.80
2018-06-04T22:39:37.133Z,7.77
2018-06-04T22:42:05.845Z,7.67
2018-06-04T22:44:34.542Z,7.93
2018-06-04T22:47:03.291Z,20.30
2018-06-04T22:49:32.109Z,29.93
2018-06-04T22:52:00.799Z,24.03
2018-06-04T22:54:29.293Z,18.60
2018-06-04T22:56:57.974Z,20.87
2018-06-04T22:59:26.461Z,17.47
2018-06-04T23:01:55.159Z,8.07
2018-06-04T23:04:23.843Z,7.50
2018-06-04T23:06:52.511Z,7.53
2018-06-04T23:09:20.993Z,7.70
2018-06-04T23:11:49.676Z,8.60
2018-06-04T23:14:18.158Z,15.80
2018-06-04T23:16:46.846Z,20.43
2018-06-04T23:19:15.548Z,21.83
2018-06-04T23:21:44.256Z,24.40
2018-06-04T23:24:12.946Z,19.53
2018-06-04T23:26:41.634Z,21.83
2018-06-04T23:29:10.319Z,20.10
2018-06-04T23:31:39.012Z,20.80
2018-06-04T23:34:07.713Z,18.20
2018-06-04T23:36:36.395Z,17.93
2018-06-04T23:39:08.546Z,17.00
2018-06-04T23:41:37.386Z,20.47
2018-06-04T23:44:06.066Z,16.40
2018-06-04T23:46:34.779Z,16.13
2018-06-04T23:49:03.551Z,10.60
2018-06-04T23:51:32.310Z,11.80
2018-06-04T23:54:00.985Z,12.17
2018-06-04T23:56:29.773Z,11.87
2018-06-04T23:58:58.425Z,11.27
